Flight Track Log - Related Links

Times and Time Zones

All times are in EDT time to prevent confusion due to time zone crossing. See the N502QS flight status page for this flight to view local times or setup timezone preferences in your user account.


Time Position Orientation Groundspeed Altitude Reporting Facility
EDT Latitude Longitude Course Direction KTS MPH feet Rate Location/Type
Fri 11:37:00 AM 53.4229 151.8273 34° Northeast  Level Estimated
Fri 11:38:00 AM 53.4976 152.0390 59° Northeast  Level Estimated
Fri 11:39:00 AM 53.5719 152.2515 59° Northeast  Level Estimated
Fri 11:40:00 AM 53.6459 152.4647 60° Northeast  Level Estimated
Fri 11:41:00 AM 53.7195 152.6787 60° Northeast  Level Estimated
Fri 11:42:00 AM 53.7927 152.8934 60° Northeast  Level Estimated
Fri 11:43:00 AM 53.8655 153.1089 60° Northeast  Level Estimated
Fri 11:44:00 AM 53.9380 153.3251 60° Northeast  Level Estimated
Fri 11:45:00 AM 54.0100 153.5421 60° Northeast  Level Estimated
Fri 11:46:00 AM 54.0817 153.7598 61° Northeast  Level Estimated
Fri 11:47:00 AM 54.1529 153.9783 61° Northeast  Level Estimated
Fri 11:48:00 AM 54.2238 154.1976 61° Northeast  Level Estimated
Fri 11:49:00 AM 54.2942 154.4175 61° Northeast  Level Estimated
Fri 11:50:00 AM 54.3643 154.6383 61° Northeast  Level Estimated
Fri 11:51:00 AM 54.4340 154.8598 62° Northeast  Level Estimated
Fri 11:52:00 AM 54.5032 155.0820 62° Northeast  Level Estimated
Fri 11:53:00 AM 54.5720 155.3050 62° Northeast  Level Estimated
Fri 11:54:00 AM 54.6405 155.5287 62° Northeast  Level Estimated
Fri 11:55:00 AM 54.7085 155.7532 62° Northeast  Level Estimated
Fri 11:56:00 AM 54.7761 155.9785 62° Northeast  Level Estimated
Fri 11:57:00 AM 54.8433 156.2045 63° Northeast  Level Estimated
Fri 11:58:00 AM 54.9100 156.4312 63° Northeast  Level Estimated
Fri 11:59:00 AM 54.9764 156.6587 63° Northeast  Level Estimated
Fri 12:00:00 PM 55.0423 156.8870 63° Northeast  Level Estimated
Fri 12:01:00 PM 55.1078 157.1160 63° Northeast  Level Estimated
Fri 12:02:00 PM 55.1728 157.3457 64° Northeast  Level Estimated
Fri 12:03:00 PM 55.2374 157.5762 64° Northeast  Level Estimated
Fri 12:04:00 PM 55.3016 157.8075 64° Northeast  Level Estimated
Fri 12:05:00 PM 55.3653 158.0395 64° Northeast  Level Estimated
Fri 12:06:00 PM 55.4286 158.2722 64° Northeast  Level Estimated
Fri 12:07:00 PM 55.4915 158.5057 65° Northeast  Level Estimated
Fri 12:08:00 PM 55.5539 158.7399 65° Northeast  Level Estimated
Fri 12:09:00 PM 55.6159 158.9749 65° Northeast  Level Estimated
Fri 12:10:00 PM 55.6774 159.2106 65° Northeast  Level Estimated
Fri 12:11:00 PM 55.7385 159.4471 65° Northeast  Level Estimated
Fri 12:12:00 PM 55.7991 159.6843 65° Northeast  Level Estimated
Fri 12:13:00 PM 55.8592 159.9222 66° East  Level Estimated
Fri 12:14:00 PM 55.9189 160.1608 66° East  Level Estimated
Fri 12:15:00 PM 55.9781 160.4003 66° East  Level Estimated
Fri 12:16:00 PM 56.0369 160.6404 66° East  Level Estimated
Fri 12:17:00 PM 56.0952 160.8812 66° East  Level Estimated
Fri 12:18:00 PM 56.1530 161.1228 67° East  Level Estimated
Fri 12:19:00 PM 56.2104 161.3651 67° East  Level Estimated
Fri 12:20:00 PM 56.2672 161.6082 67° East  Level Estimated
Fri 12:21:00 PM 56.3236 161.8519 67° East  Level Estimated
Fri 12:22:00 PM 56.3796 162.0964 67° East  Level Estimated
Fri 12:23:00 PM 56.4350 162.3416 68° East  Level Estimated
Fri 12:24:00 PM 56.4899 162.5875 68° East  Level Estimated
Fri 12:25:00 PM 56.5444 162.8341 68° East  Level Estimated
Fri 12:26:00 PM 56.5984 163.0814 68° East  Level Estimated
Fri 12:27:00 PM 56.6518 163.3294 68° East  Level Estimated
Fri 12:28:00 PM 56.7048 163.5781 69° East  Level Estimated
Fri 12:29:00 PM 56.7573 163.8276 69° East  Level Estimated
Fri 12:30:00 PM 56.8093 164.0777 69° East  Level Estimated
Fri 12:31:00 PM 56.8608 164.3285 69° East  Level Estimated
Fri 12:32:00 PM 56.9118 164.5800 70° East  Level Estimated
Fri 12:33:00 PM 56.9623 164.8322 70° East  Level Estimated
Fri 12:34:00 PM 57.0122 165.0850 70° East  Level Estimated
Fri 12:35:00 PM 57.0617 165.3386 70° East  Level Estimated
Fri 12:36:00 PM 57.1106 165.5928 70° East  Level Estimated
Fri 12:37:00 PM 57.1591 165.8477 71° East  Level Estimated
Fri 12:38:00 PM 57.2070 166.1032 71° East  Level Estimated
Fri 12:39:00 PM 57.2544 166.3594 71° East  Level Estimated
Fri 12:40:00 PM 57.3013 166.6163 71° East  Level Estimated
Fri 12:41:00 PM 57.3476 166.8738 71° East  Level Estimated
Fri 12:42:00 PM 57.3934 167.1319 72° East  Level Estimated
Fri 12:43:00 PM 57.4387 167.3907 72° East  Level Estimated
Fri 12:44:00 PM 57.4835 167.6502 72° East  Level Estimated
Fri 12:45:00 PM 57.5277 167.9102 72° East  Level Estimated
Fri 12:46:00 PM 57.5714 168.1709 73° East  Level Estimated
Fri 12:47:00 PM 57.6145 168.4323 73° East  Level Estimated
Fri 12:48:00 PM 57.6571 168.6942 73° East  Level Estimated
Fri 12:49:00 PM 57.6992 168.9568 73° East  Level Estimated
Fri 12:50:00 PM 57.7407 169.2199 73° East  Level Estimated
Fri 12:51:00 PM 57.7817 169.4837 74° East  Level Estimated
Fri 12:52:00 PM 57.8221 169.7480 74° East  Level Estimated
Fri 12:53:00 PM 57.8620 170.0130 74° East  Level Estimated
Fri 12:54:00 PM 57.9013 170.2785 74° East  Level Estimated
Fri 12:55:00 PM 57.9401 170.5446 75° East  Level Estimated
Fri 12:56:00 PM 57.9783 170.8113 75° East  Level Estimated
Fri 12:57:00 PM 58.0159 171.0786 75° East  Level Estimated
Fri 12:58:00 PM 58.0530 171.3463 75° East  Level Estimated
Fri 12:58:30 PM 43.0000 170.0000 64° Northeast 558 642 43,000  Level Oakland Oceanic (ODAPS)
Fri 12:59:00 PM 58.0896 171.6147 75° East  Level Estimated
Fri 01:00:00 PM 58.1255 171.8836 76° East  Level Estimated
Fri 01:01:00 PM 58.1609 172.1530 76° East  Level Estimated
Fri 01:02:00 PM 58.1957 172.4230 76° East  Level Estimated
Fri 01:03:00 PM 58.2300 172.6935 76° East  Level Estimated
Fri 01:04:00 PM 43.4712 171.3374 65° Northeast 558 642 43,000  Level FlightAware Transoceanic
Fri 01:05:00 PM 43.5373 171.5301 65° Northeast 558 642 43,000  Level FlightAware Transoceanic
Fri 01:06:00 PM 43.6030 171.7233 65° Northeast 558 642 43,000  Level FlightAware Transoceanic
Fri 01:07:00 PM 43.6684 171.9169 65° Northeast 558 642 43,000  Level FlightAware Transoceanic
Fri 01:08:00 PM 43.7335 172.1109 65° Northeast 558 642 43,000  Level FlightAware Transoceanic
Fri 01:09:00 PM 43.7982 172.3053 65° Northeast 558 642 43,000  Level FlightAware Transoceanic
Fri 01:10:00 PM 43.8626 172.5002 65° Northeast 558 642 43,000  Level FlightAware Transoceanic
Fri 01:11:00 PM 43.9267 172.6954 66° East 558 642 43,000  Level FlightAware Transoceanic
Fri 01:12:00 PM 43.9904 172.8911 66° East 558 642 43,000  Level FlightAware Transoceanic
Fri 01:13:00 PM 44.0538 173.0872 66° East 558 642 43,000  Level FlightAware Transoceanic
Fri 01:14:00 PM 44.1169 173.2838 66° East 558 642 43,000  Level FlightAware Transoceanic
Fri 01:15:00 PM 44.1796 173.4807 66° East 558 642 43,000  Level FlightAware Transoceanic
Fri 01:16:00 PM 44.2420 173.6781 66° East 558 642 43,000  Level FlightAware Transoceanic
Fri 01:17:00 PM 44.3040 173.8758 66° East 558 642 43,000  Level FlightAware Transoceanic
Fri 01:18:00 PM 44.3657 174.0740 67° East 558 642 43,000  Level FlightAware Transoceanic
Fri 01:19:00 PM 44.4271 174.2727 67° East 558 642 43,000  Level FlightAware Transoceanic
Fri 01:20:00 PM 44.4881 174.4717 67° East 558 642 43,000  Level FlightAware Transoceanic
Fri 01:21:00 PM 44.5488 174.6711 67° East 558 642 43,000  Level FlightAware Transoceanic
Fri 01:22:00 PM 44.6091 174.8710 67° East 558 642 43,000  Level FlightAware Transoceanic
Fri 01:23:00 PM 44.6691 175.0713 67° East 558 642 43,000  Level FlightAware Transoceanic
Fri 01:24:00 PM 44.7287 175.2720 67° East 558 642 43,000  Level FlightAware Transoceanic
Fri 01:25:00 PM 44.7880 175.4731 68° East 558 642 43,000  Level FlightAware Transoceanic
Fri 01:26:00 PM 44.8469 175.6746 68° East 558 642 43,000  Level FlightAware Transoceanic
Fri 01:27:00 PM 44.9055 175.8765 68° East 558 642 43,000  Level FlightAware Transoceanic
Fri 01:28:00 PM 44.9637 176.0789 68° East 558 642 43,000  Level FlightAware Transoceanic
Fri 01:29:00 PM 45.0216 176.2816 68° East 558 642 43,000  Level FlightAware Transoceanic
Fri 01:30:00 PM 45.0790 176.4848 68° East 558 642 43,000  Level FlightAware Transoceanic
Fri 01:31:00 PM 45.1362 176.6883 68° East 558 642 43,000  Level FlightAware Transoceanic
Fri 01:32:00 PM 45.1929 176.8923 69° East 558 642 43,000  Level FlightAware Transoceanic
Fri 01:33:00 PM 45.2494 177.0967 69° East 558 642 43,000  Level FlightAware Transoceanic
Fri 01:34:00 PM 45.3054 177.3015 69° East 558 642 43,000  Level FlightAware Transoceanic
Fri 01:35:00 PM 45.3611 177.5067 69° East 558 642 43,000  Level FlightAware Transoceanic
Fri 01:36:00 PM 45.4164 177.7123 69° East 558 642 43,000  Level FlightAware Transoceanic
Fri 01:37:00 PM 45.4713 177.9182 69° East 558 642 43,000  Level FlightAware Transoceanic
Fri 01:38:00 PM 45.5259 178.1246 69° East 558 642 43,000  Level FlightAware Transoceanic
Fri 01:39:00 PM 45.5801 178.3314 70° East 558 642 43,000  Level FlightAware Transoceanic
Fri 01:40:00 PM 45.6339 178.5386 70° East 558 642 43,000  Level FlightAware Transoceanic
Fri 01:41:00 PM 45.6873 178.7462 70° East 558 642 43,000  Level FlightAware Transoceanic
Fri 01:42:00 PM 45.7404 178.9542 70° East 558 642 43,000  Level FlightAware Transoceanic
Fri 01:43:00 PM 45.7931 179.1626 70° East 558 642 43,000  Level FlightAware Transoceanic
Fri 01:44:00 PM 45.8454 179.3714 70° East 558 642 43,000  Level FlightAware Transoceanic
Fri 01:45:00 PM 45.8973 179.5805 70° East 558 642 43,000  Level FlightAware Transoceanic
Fri 01:46:00 PM 45.9488 179.7901 71° East 558 642 43,000  Level FlightAware Transoceanic
Fri 01:47:00 PM 46.0000 -180.0000 70° East 558 642 43,000  Level FlightAware Transoceanic
Fri 01:48:00 PM 46.0483 -179.8077 70° East 558 642 43,000  Level FlightAware Transoceanic
Fri 01:49:00 PM 46.0964 -179.6150 70° East 558 642 43,000  Level FlightAware Transoceanic
Fri 01:50:00 PM 46.1440 -179.4220 70° East 558 642 43,000  Level FlightAware Transoceanic
Fri 01:51:00 PM 46.1914 -179.2287 71° East 558 642 43,000  Level FlightAware Transoceanic
Fri 01:52:00 PM 46.2384 -179.0350 71° East 558 642 43,000  Level FlightAware Transoceanic
Fri 01:53:00 PM 46.2851 -178.8410 71° East 558 642 43,000  Level FlightAware Transoceanic
Fri 01:54:00 PM 46.3315 -178.6467 71° East 558 642 43,000  Level FlightAware Transoceanic
Fri 01:55:00 PM 46.3776 -178.4520 71° East 558 642 43,000  Level FlightAware Transoceanic
Fri 01:56:00 PM 46.4233 -178.2570 71° East 558 642 43,000  Level FlightAware Transoceanic
Fri 01:57:00 PM 46.4687 -178.0617 71° East 558 642 43,000  Level FlightAware Transoceanic
Fri 01:58:00 PM 46.5137 -177.8661 72° East 558 642 43,000  Level FlightAware Transoceanic
Fri 01:59:00 PM 46.5584 -177.6701 72° East 558 642 43,000  Level FlightAware Transoceanic
Fri 02:00:00 PM 46.6028 -177.4738 72° East 558 642 43,000  Level FlightAware Transoceanic
Fri 02:01:00 PM 46.6469 -177.2772 72° East 558 642 43,000  Level FlightAware Transoceanic
Fri 02:02:00 PM 46.6906 -177.0803 72° East 558 642 43,000  Level FlightAware Transoceanic
Fri 02:03:00 PM 46.7340 -176.8830 72° East 558 642 43,000  Level FlightAware Transoceanic
Fri 02:04:00 PM 46.7770 -176.6855 72° East 558 642 43,000  Level FlightAware Transoceanic
Fri 02:05:00 PM 46.8197 -176.4876 73° East 558 642 43,000 1,081 Level FlightAware Transoceanic
Fri 02:05:51 PM 46.0000 -180.0000 70° East 523 602 45,000  Climbing Oakland Oceanic (ODAPS)
Fri 02:06:00 PM 46.8620 -176.2894 73° East 558 642 43,000 -1,739 Descending FlightAware Transoceanic
Fri 02:07:00 PM 46.9040 -176.0909 73° East 558 642 43,000  Level FlightAware Transoceanic
Fri 02:08:00 PM 46.9457 -175.8921 73° East 558 642 43,000  Level FlightAware Transoceanic
Fri 02:09:00 PM 46.9870 -175.6930 73° East 558 642 43,000  Level FlightAware Transoceanic
Fri 02:10:00 PM 47.0280 -175.4936 73° East 558 642 43,000  Level FlightAware Transoceanic
Fri 02:11:00 PM 47.0686 -175.2939 73° East 558 642 43,000 1,000 Level FlightAware Transoceanic
Fri 02:12:00 PM 47.0884 -175.1959 74° East 523 602 45,000 1,000 Climbing FlightAware Transoceanic
Fri 02:13:00 PM 47.1293 -174.9917 74° East 523 602 45,000  Level FlightAware Transoceanic
Fri 02:14:00 PM 47.1699 -174.7871 74° East 523 602 45,000  Level FlightAware Transoceanic
Fri 02:15:00 PM 47.2101 -174.5822 74° East 523 602 45,000  Level FlightAware Transoceanic
Fri 02:16:00 PM 47.2499 -174.3770 74° East 523 602 45,000  Level FlightAware Transoceanic
Fri 02:17:00 PM 47.2894 -174.1715 74° East 523 602 45,000  Level FlightAware Transoceanic
Fri 02:18:00 PM 47.3285 -173.9657 74° East 523 602 45,000  Level FlightAware Transoceanic
Fri 02:19:00 PM 47.3672 -173.7595 75° East 523 602 45,000  Level FlightAware Transoceanic
Fri 02:20:00 PM 47.4055 -173.5531 75° East 523 602 45,000  Level FlightAware Transoceanic
Fri 02:21:00 PM 47.4435 -173.3464 75° East 523 602 45,000  Level FlightAware Transoceanic
Fri 02:22:00 PM 47.4811 -173.1394 75° East 523 602 45,000  Level FlightAware Transoceanic
Fri 02:23:00 PM 47.5184 -172.9321 75° East 523 602 45,000  Level FlightAware Transoceanic
Fri 02:24:00 PM 47.5552 -172.7245 75° East 523 602 45,000  Level FlightAware Transoceanic
Fri 02:25:00 PM 47.5917 -172.5166 75° East 523 602 45,000  Level FlightAware Transoceanic
Fri 02:26:00 PM 47.6278 -172.3084 76° East 523 602 45,000  Level FlightAware Transoceanic
Fri 02:27:00 PM 47.6636 -172.0999 76° East 523 602 45,000  Level FlightAware Transoceanic
Fri 02:28:00 PM 47.6990 -171.8912 76° East 523 602 45,000  Level FlightAware Transoceanic
Fri 02:29:00 PM 47.7339 -171.6821 76° East 523 602 45,000  Level FlightAware Transoceanic
Fri 02:30:00 PM 47.7685 -171.4728 76° East 523 602 45,000  Level FlightAware Transoceanic
Fri 02:31:00 PM 47.8027 -171.2632 76° East 523 602 45,000  Level FlightAware Transoceanic
Fri 02:32:00 PM 47.8366 -171.0534 77° East 523 602 45,000  Level FlightAware Transoceanic
Fri 02:33:00 PM 47.8700 -170.8432 77° East 523 602 45,000  Level FlightAware Transoceanic
Fri 02:34:00 PM 47.9031 -170.6328 77° East 523 602 45,000  Level FlightAware Transoceanic
Fri 02:35:00 PM 47.9358 -170.4221 77° East 523 602 45,000  Level FlightAware Transoceanic
Fri 02:36:00 PM 47.9681 -170.2112 77° East 523 602 45,000  Level FlightAware Transoceanic
Fri 02:37:00 PM 48.0000 -170.0000 69° East 523 602 45,000  Level FlightAware Transoceanic
Fri 02:38:00 PM 48.0493 -169.8043 69° East 523 602 45,000  Level FlightAware Transoceanic
Fri 02:39:00 PM 48.0982 -169.6082 70° East 523 602 45,000  Level FlightAware Transoceanic
Fri 02:40:00 PM 48.1467 -169.4118 70° East 523 602 45,000  Level FlightAware Transoceanic
Fri 02:41:00 PM 48.1950 -169.2149 70° East 523 602 45,000  Level FlightAware Transoceanic
Fri 02:42:00 PM 48.2429 -169.0177 70° East 523 602 45,000  Level FlightAware Transoceanic
Fri 02:42:08 PM 48.0000 -170.0000 69° East 516 594 45,000  Level Oakland Oceanic (ODAPS)
Fri 02:43:00 PM 48.2905 -168.8202 70° East 523 602 45,000  Level FlightAware Transoceanic
Fri 02:44:00 PM 48.3377 -168.6223 70° East 523 602 45,000  Level FlightAware Transoceanic
Fri 02:45:00 PM 48.3846 -168.4240 70° East 523 602 45,000  Level FlightAware Transoceanic
Fri 02:46:00 PM 48.4311 -168.2253 71° East 523 602 45,000  Level FlightAware Transoceanic
Fri 02:47:00 PM 48.4773 -168.0263 71° East 523 602 45,000  Level FlightAware Transoceanic
Fri 02:48:00 PM 48.4398 -168.1880 71° East 516 594 45,000  Level FlightAware Transoceanic
Fri 02:49:00 PM 48.4869 -167.9848 71° East 516 594 45,000  Level FlightAware Transoceanic
Fri 02:50:00 PM 48.5336 -167.7812 71° East 516 594 45,000  Level FlightAware Transoceanic
Fri 02:51:00 PM 48.5800 -167.5772 71° East 516 594 45,000  Level FlightAware Transoceanic
Fri 02:52:00 PM 48.6260 -167.3728 71° East 516 594 45,000  Level FlightAware Transoceanic
Fri 02:53:00 PM 48.6717 -167.1681 71° East 516 594 45,000  Level FlightAware Transoceanic
Fri 02:54:00 PM 48.7170 -166.9630 72° East 516 594 45,000  Level FlightAware Transoceanic
Fri 02:55:00 PM 48.7619 -166.7575 72° East 516 594 45,000  Level FlightAware Transoceanic
Fri 02:56:00 PM 48.8065 -166.5517 72° East 516 594 45,000  Level FlightAware Transoceanic
Fri 02:57:00 PM 48.8507 -166.3454 72° East 516 594 45,000  Level FlightAware Transoceanic
Fri 02:58:00 PM 48.8945 -166.1389 72° East 516 594 45,000  Level FlightAware Transoceanic
Fri 02:59:00 PM 48.9380 -165.9319 72° East 516 594 45,000  Level FlightAware Transoceanic
Fri 03:00:00 PM 48.9811 -165.7247 73° East 516 594 45,000  Level FlightAware Transoceanic
Fri 03:01:00 PM 49.0238 -165.5170 73° East 516 594 45,000  Level FlightAware Transoceanic
Fri 03:02:00 PM 49.0661 -165.3090 73° East 516 594 45,000  Level FlightAware Transoceanic
Fri 03:03:00 PM 49.1081 -165.1006 73° East 516 594 45,000  Level FlightAware Transoceanic
Fri 03:04:00 PM 49.1497 -164.8920 73° East 516 594 45,000  Level FlightAware Transoceanic
Fri 03:05:00 PM 49.1909 -164.6829 73° East 516 594 45,000  Level FlightAware Transoceanic
Fri 03:06:00 PM 49.2317 -164.4735 73° East 516 594 45,000  Level FlightAware Transoceanic
Fri 03:07:00 PM 49.2722 -164.2637 74° East 516 594 45,000  Level FlightAware Transoceanic
Fri 03:08:00 PM 49.3123 -164.0537 74° East 516 594 45,000  Level FlightAware Transoceanic
Fri 03:09:00 PM 49.3520 -163.8432 74° East 516 594 45,000  Level FlightAware Transoceanic
Fri 03:10:00 PM 49.3913 -163.6325 74° East 516 594 45,000  Level FlightAware Transoceanic
Fri 03:11:00 PM 49.4302 -163.4214 74° East 516 594 45,000  Level FlightAware Transoceanic
Fri 03:12:00 PM 49.4688 -163.2099 74° East 516 594 45,000  Level FlightAware Transoceanic
Fri 03:13:00 PM 49.5069 -162.9982 75° East 516 594 45,000  Level FlightAware Transoceanic
Fri 03:14:00 PM 49.5447 -162.7861 75° East 516 594 45,000  Level FlightAware Transoceanic
Fri 03:15:00 PM 49.5821 -162.5736 75° East 516 594 45,000  Level FlightAware Transoceanic
Fri 03:16:00 PM 49.6191 -162.3609 75° East 516 594 45,000  Level FlightAware Transoceanic
Fri 03:17:00 PM 49.6557 -162.1478 75° East 516 594 45,000  Level FlightAware Transoceanic
Fri 03:18:00 PM 49.6919 -161.9344 75° East 516 594 45,000  Level FlightAware Transoceanic
Fri 03:19:00 PM 49.7277 -161.7207 76° East 516 594 45,000  Level FlightAware Transoceanic
Fri 03:20:00 PM 49.7631 -161.5067 76° East 516 594 45,000  Level FlightAware Transoceanic
Fri 03:21:00 PM 49.7982 -161.2924 76° East 516 594 45,000  Level FlightAware Transoceanic
Fri 03:22:00 PM 49.8328 -161.0777 76° East 516 594 45,000  Level FlightAware Transoceanic
Fri 03:23:00 PM 49.8670 -160.8628 76° East 516 594 45,000  Level FlightAware Transoceanic
Fri 03:24:00 PM 49.9009 -160.6475 76° East 516 594 45,000  Level FlightAware Transoceanic
Fri 03:25:00 PM 49.9343 -160.4320 77° East 516 594 45,000  Level FlightAware Transoceanic
Fri 03:26:00 PM 49.9674 -160.2161 77° East 516 594 45,000  Level FlightAware Transoceanic
Fri 03:27:00 PM 50.0000 -160.0000 69° East 516 594 45,000  Level FlightAware Transoceanic
Fri 03:28:00 PM 50.0523 -159.7921 69° East 516 594 45,000  Level FlightAware Transoceanic
Fri 03:29:00 PM 50.1043 -159.5838 69° East 516 594 45,000  Level FlightAware Transoceanic
Fri 03:30:00 PM 50.1559 -159.3751 69° East 516 594 45,000  Level FlightAware Transoceanic
Fri 03:31:00 PM 50.2071 -159.1659 69° East 516 594 45,000  Level FlightAware Transoceanic
Fri 03:31:56 PM 50.0000 -160.0000 69° East 496 571 45,000  Level Oakland Oceanic (ODAPS)
Fri 03:32:00 PM 50.2579 -158.9563 69° East 516 594 45,000  Level FlightAware Transoceanic
Fri 03:33:00 PM 50.3083 -158.7462 69° East 516 594 45,000  Level FlightAware Transoceanic
Fri 03:34:00 PM 50.3584 -158.5356 70° East 516 594 45,000  Level FlightAware Transoceanic
Fri 03:35:00 PM 50.4081 -158.3246 70° East 516 594 45,000  Level FlightAware Transoceanic
Fri 03:36:00 PM 50.4574 -158.1132 70° East 516 594 45,000  Level FlightAware Transoceanic
Fri 03:37:00 PM 50.5063 -157.9014 70° East 516 594 45,000  Level FlightAware Transoceanic
Fri 03:38:00 PM 50.5790 -157.5828 70° East 496 571 45,000  Level FlightAware Transoceanic
Fri 03:39:00 PM 50.6250 -157.3787 71° East 496 571 45,000  Level FlightAware Transoceanic
Fri 03:40:00 PM 50.6706 -157.1742 71° East 496 571 45,000  Level FlightAware Transoceanic
Fri 03:41:00 PM 50.7158 -156.9693 71° East 496 571 45,000  Level FlightAware Transoceanic
Fri 03:42:00 PM 50.7607 -156.7641 71° East 496 571 45,000  Level FlightAware Transoceanic
Fri 03:43:00 PM 50.8052 -156.5584 71° East 496 571 45,000  Level FlightAware Transoceanic
Fri 03:44:00 PM 50.8494 -156.3524 71° East 496 571 45,000  Level FlightAware Transoceanic
Fri 03:45:00 PM 50.8932 -156.1460 71° East 496 571 45,000  Level FlightAware Transoceanic
Fri 03:46:00 PM 50.9366 -155.9391 72° East 496 571 45,000  Level FlightAware Transoceanic
Fri 03:47:00 PM 50.9797 -155.7319 72° East 496 571 45,000  Level FlightAware Transoceanic
Fri 03:48:00 PM 51.0224 -155.5244 72° East 496 571 45,000  Level FlightAware Transoceanic
Fri 03:49:00 PM 51.0648 -155.3164 72° East 496 571 45,000  Level FlightAware Transoceanic
Fri 03:50:00 PM 51.1067 -155.1080 72° East 496 571 45,000  Level FlightAware Transoceanic
Fri 03:51:00 PM 51.1483 -154.8993 72° East 496 571 45,000  Level FlightAware Transoceanic
Fri 03:52:00 PM 51.1896 -154.6902 73° East 496 571 45,000  Level FlightAware Transoceanic
Fri 03:53:00 PM 51.2304 -154.4808 73° East 496 571 45,000  Level FlightAware Transoceanic
Fri 03:54:00 PM 51.2709 -154.2709 73° East 496 571 45,000  Level FlightAware Transoceanic
Fri 03:55:00 PM 51.3110 -154.0607 73° East 496 571 45,000  Level FlightAware Transoceanic
Fri 03:56:00 PM 51.3507 -153.8501 73° East 496 571 45,000  Level FlightAware Transoceanic
Fri 03:57:00 PM 51.3901 -153.6392 73° East 496 571 45,000  Level FlightAware Transoceanic
Fri 03:58:00 PM 51.4290 -153.4279 74° East 496 571 45,000  Level FlightAware Transoceanic
Fri 03:59:00 PM 51.4676 -153.2162 74° East 496 571 45,000  Level FlightAware Transoceanic
Fri 04:00:00 PM 51.5058 -153.0042 74° East 496 571 45,000  Level FlightAware Transoceanic
Fri 04:01:00 PM 51.5437 -152.7918 74° East 496 571 45,000  Level FlightAware Transoceanic
Fri 04:02:00 PM 51.5811 -152.5791 74° East 496 571 45,000  Level FlightAware Transoceanic
Fri 04:03:00 PM 51.6181 -152.3660 74° East 496 571 45,000  Level FlightAware Transoceanic
Fri 04:04:00 PM 51.6548 -152.1526 75° East 496 571 45,000  Level FlightAware Transoceanic
Fri 04:05:00 PM 51.6911 -151.9389 75° East 496 571 45,000  Level FlightAware Transoceanic
Fri 04:06:00 PM 51.7270 -151.7248 75° East 496 571 45,000  Level FlightAware Transoceanic
Fri 04:07:00 PM 51.7625 -151.5103 75° East 496 571 45,000  Level FlightAware Transoceanic
Fri 04:08:00 PM 51.7976 -151.2955 75° East 496 571 45,000  Level FlightAware Transoceanic
Fri 04:09:00 PM 51.8323 -151.0804 75° East 496 571 45,000  Level FlightAware Transoceanic
Fri 04:10:00 PM 51.8666 -150.8650 76° East 496 571 45,000  Level FlightAware Transoceanic
Fri 04:11:00 PM 51.9006 -150.6492 76° East 496 571 45,000  Level FlightAware Transoceanic
Fri 04:12:00 PM 51.9341 -150.4331 76° East 496 571 45,000  Level FlightAware Transoceanic
Fri 04:13:00 PM 51.9673 -150.2167 76° East 496 571 45,000  Level FlightAware Transoceanic
Fri 04:14:00 PM 52.0000 -150.0000 86° East 496 571 45,000  Level FlightAware Transoceanic
Fri 04:15:00 PM 52.0096 -149.7681 86° East 496 571 45,000  Level FlightAware Transoceanic
Fri 04:16:00 PM 52.0188 -149.5361 86° East 496 571 45,000  Level FlightAware Transoceanic
Fri 04:17:00 PM 52.0275 -149.3041 87° East 496 571 45,000  Level FlightAware Transoceanic
Fri 04:17:51 PM 52.0000 -150.0000 86° East 517 595 45,000  Level Oakland Oceanic (ODAPS)
Fri 04:18:00 PM 52.0357 -149.0719 87° East 496 571 45,000  Level FlightAware Transoceanic
Fri 04:19:00 PM 52.0435 -148.8397 87° East 496 571 45,000  Level FlightAware Transoceanic
Fri 04:20:00 PM 52.0508 -148.6074 87° East 496 571 45,000  Level FlightAware Transoceanic
Fri 04:21:00 PM 52.0577 -148.3750 87° East 496 571 45,000  Level FlightAware Transoceanic
Fri 04:22:00 PM 52.0641 -148.1425 88° East 496 571 45,000  Level FlightAware Transoceanic
Fri 04:23:00 PM 52.0701 -147.9100 88° East 496 571 45,000  Level FlightAware Transoceanic
Fri 04:24:00 PM 52.0701 -147.9100 88° East 517 595 45,000  Level FlightAware Transoceanic
Fri 04:25:00 PM 52.0756 -147.6774 88° East 517 595 45,000  Level FlightAware Transoceanic
Fri 04:26:00 PM 52.0806 -147.4448 88° East 517 595 45,000  Level FlightAware Transoceanic
Fri 04:27:00 PM 52.0852 -147.2121 88° East 517 595 45,000  Level FlightAware Transoceanic
Fri 04:28:00 PM 52.0894 -146.9794 88° East 517 595 45,000  Level FlightAware Transoceanic
Fri 04:29:00 PM 52.0930 -146.7466 89° East 517 595 45,000  Level FlightAware Transoceanic
Fri 04:30:00 PM 52.0962 -146.5138 89° East 517 595 45,000  Level FlightAware Transoceanic
Fri 04:31:00 PM 52.0990 -146.2810 89° East 517 595 45,000  Level FlightAware Transoceanic
Fri 04:32:00 PM 52.1013 -146.0481 89° East 517 595 45,000  Level FlightAware Transoceanic
Fri 04:33:00 PM 52.1031 -145.8152 89° East 517 595 45,000  Level FlightAware Transoceanic
Fri 04:34:00 PM 52.1045 -145.5823 90° East 517 595 45,000  Level FlightAware Transoceanic
Fri 04:35:00 PM 52.1054 -145.3494 90° East 517 595 45,000  Level FlightAware Transoceanic
Fri 04:36:00 PM 52.1059 -145.1165 90° East 517 595 45,000  Level FlightAware Transoceanic
Fri 04:37:00 PM 52.1059 -144.8835 90° East 517 595 45,000  Level FlightAware Transoceanic
Fri 04:38:00 PM 52.1054 -144.6506 90° East 517 595 45,000  Level FlightAware Transoceanic
Fri 04:39:00 PM 52.1045 -144.4177 90° East 517 595 45,000  Level FlightAware Transoceanic
Fri 04:40:00 PM 52.1031 -144.1848 91° East 517 595 45,000  Level FlightAware Transoceanic
Fri 04:41:00 PM 52.1013 -143.9519 91° East 517 595 45,000  Level FlightAware Transoceanic
Fri 04:42:00 PM 52.0990 -143.7190 91° East 517 595 45,000  Level FlightAware Transoceanic
Fri 04:43:00 PM 52.0962 -143.4862 91° East 517 595 45,000  Level FlightAware Transoceanic
Fri 04:44:00 PM 52.0930 -143.2534 91° East 517 595 45,000  Level FlightAware Transoceanic
Fri 04:45:00 PM 52.0894 -143.0206 92° East 517 595 45,000  Level FlightAware Transoceanic
Fri 04:46:00 PM 52.0852 -142.7879 92° East 517 595 45,000  Level FlightAware Transoceanic
Fri 04:47:00 PM 52.0806 -142.5552 92° East 517 595 45,000  Level FlightAware Transoceanic
Fri 04:48:00 PM 52.0756 -142.3226 92° East 517 595 45,000  Level FlightAware Transoceanic
Fri 04:49:00 PM 52.0701 -142.0900 92° East 517 595 45,000  Level FlightAware Transoceanic
Fri 04:50:00 PM 52.0641 -141.8575 92° East 517 595 45,000  Level FlightAware Transoceanic
Fri 04:51:00 PM 52.0577 -141.6250 93° East 517 595 45,000  Level FlightAware Transoceanic
Fri 04:52:00 PM 52.0508 -141.3926 93° East 517 595 45,000  Level FlightAware Transoceanic
Fri 04:53:00 PM 52.0435 -141.1603 93° East 517 595 45,000  Level FlightAware Transoceanic
Fri 04:54:00 PM 52.0357 -140.9281 93° East 517 595 45,000  Level FlightAware Transoceanic
Fri 04:55:00 PM 52.0275 -140.6959 93° East 517 595 45,000  Level FlightAware Transoceanic
Fri 04:56:00 PM 52.0188 -140.4639 94° East 517 595 45,000  Level FlightAware Transoceanic
Fri 04:57:00 PM 52.0096 -140.2319 94° East 517 595 45,000  Level FlightAware Transoceanic
Fri 04:58:00 PM 52.0000 -140.0000 104° East 517 595 45,000  Level FlightAware Transoceanic
Fri 04:59:00 PM 51.9652 -139.7714 104° East 517 595 45,000  Level FlightAware Transoceanic
Fri 05:00:00 PM 51.9299 -139.5432 104° East 517 595 45,000  Level FlightAware Transoceanic
Fri 05:01:00 PM 51.8942 -139.3153 104° East 517 595 45,000  Level FlightAware Transoceanic
Fri 05:01:28 PM 52.0000 -140.0000 104° East 504 580 45,000  Level Oakland Oceanic (ODAPS)
Fri 05:02:00 PM 51.8581 -139.0878 105° East 517 595 45,000  Level FlightAware Transoceanic
Fri 05:03:00 PM 51.8215 -138.8607 105° East 517 595 45,000  Level FlightAware Transoceanic
Fri 05:04:00 PM 51.7845 -138.6339 105° East 517 595 45,000  Level FlightAware Transoceanic
Fri 05:05:00 PM 51.7470 -138.4076 105° East 517 595 45,000  Level FlightAware Transoceanic
Fri 05:06:00 PM 51.7091 -138.1815 105° East 517 595 45,000  Level FlightAware Transoceanic
Fri 05:07:00 PM 51.6842 -138.0340 105° East 504 580 45,000  Level FlightAware Transoceanic
Fri 05:08:00 PM 51.6470 -137.8173 106° East 504 580 45,000  Level FlightAware Transoceanic
Fri 05:09:00 PM 51.6095 -137.6009 106° East 504 580 45,000  Level FlightAware Transoceanic
Fri 05:10:00 PM 51.5716 -137.3849 106° East 504 580 45,000  Level FlightAware Transoceanic
Fri 05:11:00 PM 51.5333 -137.1693 106° East 504 580 45,000  Level FlightAware Transoceanic
Fri 05:12:00 PM 51.4946 -136.9540 106° East 504 580 45,000  Level FlightAware Transoceanic
Fri 05:13:00 PM 51.4556 -136.7391 106° East 504 580 45,000  Level FlightAware Transoceanic
Fri 05:14:00 PM 51.4161 -136.5245 107° East 504 580 45,000 -26,510 Level FlightAware Transoceanic
Fri 05:14:38 PM 49.2833 -123.1667 108° East 70 81 1,700  Descending Vancouver Center
Fri 05:15:00 PM 51.3762 -136.3104 107° East 504 580 45,000 31,683 Climbing FlightAware Transoceanic
Fri 05:16:00 PM 51.3359 -136.0966 107° East 504 580 45,000  Level FlightAware Transoceanic
Fri 05:17:00 PM 51.2953 -135.8832 107° East 504 580 45,000  Level FlightAware Transoceanic
Fri 05:17:00 PM 48.9542 -122.9995 162° South  Level Estimated
Fri 05:18:00 PM 51.2543 -135.6701 107° East 504 580 45,000  Level FlightAware Transoceanic
Fri 05:19:00 PM 51.2128 -135.4575 107° East 504 580 45,000  Level FlightAware Transoceanic
Fri 05:20:00 PM 51.1710 -135.2452 108° East 504 580 45,000 -43 Level FlightAware Transoceanic
Fri 05:21:20 PM 51.1667 -135.3500 146° Southeast 500 575 44,900 -43 Descending Vancouver Center
Fri 05:22:20 PM 51.1167 -135.1333 110° East 510 587 44,900  Level Vancouver Center
Fri 05:23:20 PM 51.0833 -134.9167 104° East 510 587 44,900  Level Vancouver Center
Fri 05:24:00 PM 47.9794 -122.5177 162° South  Level Estimated
Fri 05:24:20 PM 51.0333 -134.7167 112° Southeast 510 587 44,900  Level Vancouver Center
Fri 05:25:00 PM 47.8400 -122.4503 162° South  Level Estimated
Fri 05:25:20 PM 50.9833 -134.4833 109° East 510 587 44,900  Level Vancouver Center
Fri 05:26:00 PM 47.7052 -122.3856 146° Southeast  Level Estimated
Fri 05:26:20 PM 50.9167 -134.2833 118° Southeast 520 598 44,900  Level Vancouver Center
Fri 05:27:20 PM 50.8500 -134.0833 118° Southeast 510 587 44,900  Level Vancouver Center
Fri 05:28:20 PM 50.7833 -133.8833 118° Southeast 510 587 44,900  Level Vancouver Center
Fri 05:29:20 PM 50.7167 -133.7000 120° Southeast 510 587 44,900  Level Vancouver Center
Fri 05:30:20 PM 50.6333 -133.4833 121° Southeast 520 598 44,900  Level Vancouver Center
Fri 05:31:20 PM 50.5667 -133.3000 120° Southeast 510 587 44,900  Level Vancouver Center
Fri 05:32:20 PM 50.5000 -133.1000 118° Southeast 520 598 44,900  Level Vancouver Center
Fri 05:33:20 PM 50.4500 -132.9167 113° Southeast 490 564 44,900  Level Vancouver Center
Fri 05:34:20 PM 50.3667 -132.7167 123° Southeast 500 575 44,900  Level Vancouver Center
Fri 05:35:20 PM 50.3000 -132.5333 120° Southeast 510 587 44,900  Level Vancouver Center
Fri 05:36:20 PM 50.2333 -132.3500 120° Southeast 510 587 44,900  Level Vancouver Center
Fri 05:37:20 PM 50.1500 -132.1500 123° Southeast 510 587 44,900  Level Vancouver Center
Fri 05:38:20 PM 50.0833 -131.9500 117° Southeast 510 587 44,900  Level Vancouver Center
Fri 05:39:20 PM 50.0000 -131.7500 123° Southeast 520 598 44,900  Level Vancouver Center
Fri 05:40:20 PM 49.9333 -131.5833 122° Southeast 510 587 44,900  Level Vancouver Center
Fri 05:41:20 PM 49.8500 -131.4000 125° Southeast 500 575 44,900  Level Vancouver Center
Fri 05:42:20 PM 49.7833 -131.2000 117° Southeast 500 575 44,900  Level Vancouver Center
Fri 05:43:20 PM 49.7167 -131.0167 119° Southeast 500 575 44,900  Level Vancouver Center
Fri 05:44:20 PM 49.6500 -130.8500 122° Southeast 490 564 44,900  Level Vancouver Center
Fri 05:45:20 PM 49.5667 -130.6500 123° Southeast 500 575 44,900  Level Vancouver Center
Fri 05:46:20 PM 49.5000 -130.4833 122° Southeast 500 575 44,900  Level Vancouver Center
Fri 05:47:20 PM 49.4167 -130.3000 125° Southeast 500 575 44,900  Level Vancouver Center
Fri 05:48:20 PM 49.3500 -130.1000 117° Southeast 490 564 44,900  Level Vancouver Center
Fri 05:49:20 PM 49.3333 -129.9167 98° East 490 564 44,900  Level Vancouver Center
Fri 05:50:20 PM 49.2833 -129.7167 111° Southeast 490 564 44,900  Level Vancouver Center
Fri 05:51:20 PM 49.2500 -129.5333 106° East 490 564 44,900  Level Vancouver Center
Fri 05:52:20 PM 49.2000 -129.3000 108° East 500 575 44,900  Level Vancouver Center
Fri 05:53:20 PM 49.1833 -129.1167 98° East 500 575 44,900  Level Vancouver Center
Fri 05:54:20 PM 49.1500 -128.9000 103° East 500 575 44,900  Level Vancouver Center
Fri 05:55:20 PM 49.1000 -128.7000 111° Southeast 510 587 44,900  Level Vancouver Center
Fri 05:56:20 PM 49.0667 -128.4833 103° East 510 587 44,900  Level Vancouver Center
Fri 05:57:20 PM 49.0167 -128.2833 111° Southeast 510 587 44,900  Level Vancouver Center
Fri 05:58:20 PM 49.0000 -128.0667 97° East 510 587 44,900  Level Vancouver Center
Fri 05:59:20 PM 48.9500 -127.8667 111° Southeast 510 587 44,900  Level Vancouver Center
Fri 06:00:20 PM 48.9000 -127.6667 111° Southeast 500 575 44,900  Level Vancouver Center
Fri 06:01:20 PM 48.8667 -127.4500 103° East 500 575 44,900  Level Vancouver Center
Fri 06:02:20 PM 48.8333 -127.2500 104° East 500 575 44,900  Level Vancouver Center
Fri 06:03:20 PM 48.8000 -127.0500 104° East 500 575 44,900  Level Vancouver Center
Fri 06:04:20 PM 48.7500 -126.8667 112° Southeast 490 564 44,900  Level Vancouver Center
Fri 06:05:20 PM 48.7167 -126.6667 104° East 490 564 44,900  Level Vancouver Center
Fri 06:06:20 PM 48.6667 -126.4500 109° East 490 564 44,900  Level Vancouver Center
Fri 06:07:20 PM 48.6333 -126.2500 104° East 490 564 44,900  Level Vancouver Center
Fri 06:08:20 PM 48.5833 -126.0667 112° Southeast 490 564 44,900 -50 Level Vancouver Center
Fri 06:09:20 PM 48.5500 -125.8667 104° East 490 564 44,800 -450 Descending Vancouver Center
Fri 06:10:20 PM 48.5000 -125.6667 111° Southeast 490 564 44,000 -1,150 Descending Vancouver Center
Fri 06:11:20 PM 48.4667 -125.4833 105° East 500 575 42,500 -1,950 Descending Vancouver Center
Fri 06:12:20 PM 48.4333 -125.2667 103° East 500 575 40,100 -2,350 Descending Vancouver Center
Fri 06:13:20 PM 48.3833 -125.0833 112° Southeast 500 575 37,800 -2,350 Descending Vancouver Center
Fri 06:14:20 PM 48.3333 -124.8833 111° Southeast 490 564 35,400 -2,204 Descending Vancouver Center
Fri 06:14:58 PM 48.3344 -124.7883 89° East 488 562 34,200 -2,242 Descending Seattle Center
Fri 06:15:59 PM 48.2933 -124.5908 107° East 494 568 31,700 -2,705 Descending Seattle Center
Fri 06:17:00 PM 48.2597 -124.3525 102° East 491 565 28,700 -2,656 Descending Seattle Center
Fri 06:18:01 PM 48.2317 -124.1583 102° East 480 552 26,300 -2,361 Descending Seattle Center
Fri 06:19:02 PM 48.2039 -123.9708 102° East 466 536 23,900 -2,262 Descending Seattle Center
Fri 06:20:03 PM 48.1772 -123.7861 102° East 458 527 21,700 -2,262 Descending Seattle Center
Fri 06:21:04 PM 48.1506 -123.6081 103° East 443 510 19,300 -2,115 Descending Seattle Center
Fri 06:22:05 PM 48.1256 -123.4358 102° East 429 494 17,400 -2,016 Descending Seattle Center
Fri 06:23:06 PM 48.0997 -123.2711 103° East 414 476 15,200 -2,164 Descending Seattle Center
Fri 06:24:07 PM 48.0714 -123.0961 104° East 394 453 13,000 -1,475 Descending Seattle Center
Fri 06:25:08 PM 48.0467 -122.9403 103° East 391 450 12,200 -496 Descending Seattle Center
Fri 06:26:08 PM 47.9925 -122.8072 121° Southeast 399 459 12,000 -98 Descending Seattle Center
Fri 06:27:10 PM 47.8997 -122.7219 148° Southeast 396 456 12,000  Level Seattle Center
Fri 06:28:11 PM 47.7964 -122.6306 149° Southeast 393 452 12,000 -49 Level Seattle Center
Fri 06:29:12 PM 47.7075 -122.5517 149° Southeast 371 427 11,900 -650 Descending Seattle Center
Fri 06:30:11 PM 47.6303 -122.4850 150° Southeast 311 358 10,700 -1,200 Descending Seattle Center
Fri 06:31:12 PM 47.5536 -122.4356 156° South 290 334 9,500 -1,131 Descending Seattle Center
Fri 06:32:13 PM 47.4822 -122.3992 161° South 240 276 8,400 -1,082 Descending Seattle Center
Fri 06:33:14 PM 47.4242 -122.3722 163° South 211 243 7,300 -1,131 Descending Seattle Center
Fri 06:34:15 PM 47.3708 -122.3458 161° South 210 242 6,100 -1,426 Descending Seattle Center
Fri 06:35:16 PM 47.3533 -122.2769 111° Southeast 203 234 4,400 -1,686 Descending Seattle Center
Fri 06:36:16 PM 47.4019 -122.2403 27° Northeast 181 208 2,700 -1,240 Descending Seattle Center
Fri 06:37:17 PM 47.4467 -122.2417 359° North 161 185 1,900 -864 Descending Seattle Center
Fri 06:38:21 PM 47.4872 -122.2689 336° Northwest 146 168 900 -816 Descending Seattle Center
Fri 06:39:22 PM 47.5136 -122.2903 331° Northwest 123 142 200 -393 Descending Seattle Center
Fri 06:40:23 PM 47.5303 -122.3028 333° Northwest 91 105 100 -49 Descending Seattle Center
Fri 06:41:24 PM 47.5333 -122.3028 360° North 41 47 100  Level Seattle Center

Login

Don't have an account? Register now (free) for customized features, flight alerts, and more!